createdAt,value
2019-03-02T00:01:06.179Z,10.97
2019-03-02T00:03:34.879Z,13.67
2019-03-02T00:06:02.182Z,14.13
2019-03-02T00:08:29.073Z,13.70
2019-03-02T00:10:55.746Z,13.60
2019-03-02T00:13:22.443Z,12.27
2019-03-02T00:15:49.151Z,15.20
2019-03-02T00:18:16.075Z,17.57
2019-03-02T00:20:43.122Z,17.93
2019-03-02T00:23:09.827Z,16.67
2019-03-02T00:25:36.751Z,17.17
2019-03-02T00:28:03.543Z,17.77
2019-03-02T00:30:30.335Z,17.47
2019-03-02T00:32:57.023Z,19.87
2019-03-02T00:35:23.711Z,19.43
2019-03-02T00:37:50.407Z,20.57
2019-03-02T00:40:17.112Z,18.87
2019-03-02T00:42:43.896Z,20.47
2019-03-02T00:45:14.047Z,20.17
2019-03-02T00:47:39.315Z,20.50
2019-03-02T00:50:06.231Z,22.20
2019-03-02T00:52:32.952Z,21.30
2019-03-02T00:54:59.641Z,22.13
2019-03-02T00:57:26.338Z,21.70
2019-03-02T00:59:53.039Z,22.73
2019-03-02T01:02:19.732Z,22.20
2019-03-02T01:04:46.431Z,23.13
2019-03-02T01:07:13.114Z,24.90
2019-03-02T01:09:39.820Z,22.40
2019-03-02T01:12:09.164Z,21.97
2019-03-02T01:14:35.215Z,24.27
2019-03-02T01:17:02.001Z,24.63
2019-03-02T01:19:28.703Z,23.93
2019-03-02T01:21:55.386Z,22.60
2019-03-02T01:24:22.083Z,22.43
2019-03-02T01:26:48.872Z,23.77
2019-03-02T01:29:19.149Z,24.30
2019-03-02T01:31:44.687Z,23.27
2019-03-02T01:34:11.392Z,24.10
2019-03-02T01:36:38.075Z,26.37
2019-03-02T01:39:05.552Z,22.87
2019-03-02T01:41:32.251Z,24.60
2019-03-02T01:43:58.947Z,23.97
2019-03-02T01:46:25.644Z,25.07
2019-03-02T01:48:52.365Z,25.30
2019-03-02T01:51:19.783Z,25.77
2019-03-02T01:53:47.759Z,24.87
2019-03-02T01:56:14.464Z,23.27
2019-03-02T01:58:41.180Z,24.97
2019-03-02T02:01:07.924Z,25.70
2019-03-02T02:03:34.710Z,23.70
2019-03-02T02:06:03.833Z,24.20
2019-03-02T02:08:30.715Z,25.40
2019-03-02T02:10:57.723Z,23.80
2019-03-02T02:13:24.531Z,26.40
2019-03-02T02:15:51.248Z,25.70
2019-03-02T02:18:17.955Z,24.70
2019-03-02T02:20:46.864Z,23.27
2019-03-02T02:23:14.137Z,25.73
2019-03-02T02:25:41.376Z,23.73
2019-03-02T02:28:08.195Z,25.10
2019-03-02T02:30:35.015Z,25.40
2019-03-02T02:33:03.968Z,25.23
2019-03-02T02:35:30.506Z,24.40
2019-03-02T02:37:57.226Z,24.57
2019-03-02T02:40:24.119Z,25.60
2019-03-02T02:42:50.840Z,25.80
2019-03-02T02:45:17.767Z,24.70
2019-03-02T02:47:50.364Z,24.87
2019-03-02T02:50:14.227Z,24.33
2019-03-02T02:52:40.931Z,25.07
2019-03-02T02:55:07.876Z,25.60
2019-03-02T02:57:38.430Z,25.33
2019-03-02T03:00:12.140Z,24.53
2019-03-02T03:02:40.242Z,25.57
2019-03-02T03:05:10.031Z,27.67
2019-03-02T03:07:35.844Z,28.30
2019-03-02T03:10:29.923Z,24.67
2019-03-02T03:13:02.202Z,24.40
2019-03-02T03:15:36.072Z,25.67
2019-03-02T03:17:56.950Z,26.77
2019-03-02T03:20:23.847Z,26.17
2019-03-02T03:22:50.556Z,26.80
2019-03-02T03:25:18.037Z,25.07
2019-03-02T03:27:47.550Z,26.23
2019-03-02T03:30:17.352Z,26.03
2019-03-02T03:32:54.632Z,26.70
2019-03-02T03:35:16.835Z,25.60
2019-03-02T03:37:41.300Z,26.07
2019-03-02T03:40:08.216Z,25.47
2019-03-02T03:42:34.920Z,24.43
2019-03-02T03:45:04.386Z,26.63
2019-03-02T03:47:34.173Z,27.17
2019-03-02T03:49:59.265Z,26.57
2019-03-02T03:52:25.994Z,27.27
2019-03-02T03:54:52.779Z,28.27
2019-03-02T03:57:21.514Z,25.77
2019-03-02T03:59:48.181Z,27.23
2019-03-02T04:02:14.994Z,27.87
2019-03-02T04:04:41.884Z,26.73
2019-03-02T04:07:08.715Z,27.27
2019-03-02T04:09:35.495Z,27.17
2019-03-02T04:12:02.204Z,27.83
2019-03-02T04:14:28.916Z,28.93
2019-03-02T04:17:00.540Z,28.93
2019-03-02T04:19:34.178Z,27.90
2019-03-02T04:22:02.068Z,28.67
2019-03-02T04:24:27.906Z,28.43
2019-03-02T04:26:54.603Z,28.20
2019-03-02T04:29:22.032Z,29.30
2019-03-02T04:31:50.494Z,29.43
2019-03-02T04:34:21.300Z,27.83
2019-03-02T04:36:47.310Z,29.50
2019-03-02T04:39:15.080Z,30.20
2019-03-02T04:41:41.855Z,31.70
2019-03-02T04:44:08.550Z,32.67
2019-03-02T04:46:35.263Z,33.10
2019-03-02T04:49:01.985Z,30.83
2019-03-02T04:51:28.771Z,32.63
2019-03-02T04:53:58.057Z,30.37
2019-03-02T04:56:25.136Z,30.30
2019-03-02T04:58:51.994Z,30.73
2019-03-02T05:01:18.703Z,33.20
2019-03-02T05:03:45.416Z,31.80
2019-03-02T05:06:12.215Z,31.57
2019-03-02T05:08:41.161Z,32.40
2019-03-02T05:11:07.520Z,33.07
2019-03-02T05:13:34.608Z,33.30
2019-03-02T05:16:01.304Z,32.40
2019-03-02T05:18:28.008Z,34.73
2019-03-02T05:20:54.713Z,34.37
2019-03-02T05:23:21.415Z,33.27
2019-03-02T05:25:48.135Z,34.97
2019-03-02T05:28:14.949Z,32.93
2019-03-02T05:30:41.647Z,33.97
2019-03-02T05:33:08.457Z,35.43
2019-03-02T05:35:35.151Z,35.07
2019-03-02T05:38:01.859Z,35.97
2019-03-02T05:40:28.893Z,38.10
2019-03-02T05:42:55.943Z,36.87
2019-03-02T05:45:23.795Z,37.17
2019-03-02T05:47:51.354Z,36.47
2019-03-02T05:50:18.059Z,37.30
2019-03-02T05:52:44.754Z,35.67
2019-03-02T05:55:14.275Z,36.50
2019-03-02T05:57:40.733Z,37.87
2019-03-02T06:00:08.803Z,37.67
2019-03-02T06:02:35.522Z,38.50
2019-03-02T06:05:02.556Z,37.40
2019-03-02T06:07:29.260Z,39.23
2019-03-02T06:09:55.976Z,37.50
2019-03-02T06:12:22.669Z,37.30
2019-03-02T06:14:49.367Z,38.83
2019-03-02T06:17:16.415Z,40.10
2019-03-02T06:19:47.008Z,39.80
2019-03-02T06:22:13.704Z,40.67
2019-03-02T06:24:41.078Z,38.80
2019-03-02T06:27:10.909Z,38.80
2019-03-02T06:29:36.731Z,41.37
2019-03-02T06:32:03.436Z,41.97
2019-03-02T06:34:30.135Z,44.07
2019-03-02T06:36:56.843Z,42.87
2019-03-02T06:40:06.487Z,41.03
2019-03-02T06:42:33.995Z,42.43
2019-03-02T06:45:01.033Z,41.10
2019-03-02T06:47:29.953Z,42.50
2019-03-02T06:49:59.305Z,44.50
2019-03-02T06:52:26.271Z,41.37
2019-03-02T06:54:53.228Z,43.90
2019-03-02T06:57:20.191Z,43.70
2019-03-02T06:59:47.487Z,44.20
2019-03-02T07:02:14.651Z,42.90
2019-03-02T07:04:41.800Z,43.73
2019-03-02T07:07:08.855Z,42.97
2019-03-02T07:09:35.807Z,44.50
2019-03-02T07:12:05.966Z,45.07
2019-03-02T07:14:32.330Z,45.87
2019-03-02T07:17:00.255Z,45.23
2019-03-02T07:19:48.611Z,45.43
2019-03-02T07:22:16.870Z,43.23
2019-03-02T07:24:44.711Z,44.03
2019-03-02T07:27:11.935Z,44.30
2019-03-02T07:29:38.663Z,43.53
2019-03-02T07:32:05.667Z,43.03
2019-03-02T07:34:32.358Z,44.87
2019-03-02T07:36:59.056Z,43.63
2019-03-02T07:39:28.804Z,43.83
2019-03-02T07:41:57.894Z,42.13
2019-03-02T07:44:23.404Z,46.33
2019-03-02T07:46:50.654Z,43.90
2019-03-02T07:49:17.351Z,42.70
2019-03-02T07:51:44.047Z,43.60
2019-03-02T07:54:11.095Z,43.30
2019-03-02T07:56:37.807Z,43.13
2019-03-02T07:59:04.526Z,42.30
2019-03-02T08:01:31.234Z,44.07
2019-03-02T08:03:59.748Z,41.97
2019-03-02T08:06:26.910Z,41.67
2019-03-02T08:08:54.050Z,42.33
2019-03-02T08:11:20.776Z,41.43
2019-03-02T08:13:47.499Z,42.90
2019-03-02T08:16:14.207Z,40.63
2019-03-02T08:18:40.931Z,42.27
2019-03-02T08:21:07.635Z,41.10
2019-03-02T08:23:34.339Z,40.73
2019-03-02T08:26:01.056Z,41.57
2019-03-02T08:28:27.759Z,40.00
2019-03-02T08:30:54.460Z,40.50
2019-03-02T08:33:21.205Z,41.00
2019-03-02T08:35:48.342Z,39.80
2019-03-02T08:38:15.308Z,38.33
2019-03-02T08:40:43.795Z,36.70
2019-03-02T08:43:12.940Z,38.43
2019-03-02T08:45:39.235Z,38.23
2019-03-02T08:48:05.950Z,37.83
2019-03-02T08:50:32.652Z,37.80
2019-03-02T08:52:59.389Z,36.23
2019-03-02T08:55:26.179Z,36.17
2019-03-02T08:57:53.809Z,36.33
2019-03-02T09:00:22.292Z,37.67
2019-03-02T09:02:49.209Z,35.60
2019-03-02T09:05:16.019Z,35.30
2019-03-02T09:07:42.719Z,34.77
2019-03-02T09:10:13.614Z,34.03
2019-03-02T09:12:39.172Z,33.30
2019-03-02T09:15:09.036Z,33.57
2019-03-02T09:17:35.731Z,33.30
2019-03-02T09:20:02.536Z,33.87
2019-03-02T09:22:29.239Z,31.97
2019-03-02T09:24:55.959Z,31.50
2019-03-02T09:27:22.755Z,31.63
2019-03-02T09:29:51.420Z,31.27
2019-03-02T09:32:18.064Z,29.57
2019-03-02T09:34:44.996Z,30.10
2019-03-02T09:37:11.715Z,30.10
2019-03-02T09:39:38.481Z,30.17
2019-03-02T09:42:05.332Z,29.90
2019-03-02T09:44:32.802Z,28.67
2019-03-02T09:47:00.643Z,29.83
2019-03-02T09:49:27.339Z,30.33
2019-03-02T09:51:54.147Z,28.60
2019-03-02T09:54:20.851Z,28.43
2019-03-02T09:56:47.557Z,30.13
2019-03-02T09:59:14.296Z,28.00
2019-03-02T10:01:41.183Z,28.67
2019-03-02T10:04:07.888Z,27.97
2019-03-02T10:06:34.967Z,27.20
2019-03-02T10:09:01.691Z,27.83
2019-03-02T10:11:28.403Z,27.00
2019-03-02T10:13:55.103Z,28.47
2019-03-02T10:16:21.938Z,28.47
2019-03-02T10:18:49.777Z,26.03
2019-03-02T10:21:17.244Z,26.53
2019-03-02T10:23:44.053Z,25.90
2019-03-02T10:26:10.768Z,26.60
2019-03-02T10:28:37.479Z,26.47
2019-03-02T10:31:06.133Z,26.90
2019-03-02T10:33:33.211Z,25.83
2019-03-02T10:35:59.931Z,25.03
2019-03-02T10:38:26.627Z,25.53
2019-03-02T10:40:53.427Z,24.40
2019-03-02T10:43:20.131Z,23.23
2019-03-02T10:45:47.436Z,24.40
2019-03-02T10:48:14.199Z,22.47
2019-03-02T10:50:40.908Z,22.03
2019-03-02T10:53:07.939Z,21.57
2019-03-02T10:55:34.635Z,20.00
2019-03-02T10:58:02.315Z,18.30
2019-03-02T11:00:31.036Z,19.80
2019-03-02T11:02:58.023Z,19.47
2019-03-02T11:05:43.299Z,19.10
2019-03-02T11:08:21.704Z,19.17
2019-03-02T11:11:16.655Z,19.80
2019-03-02T11:14:08.803Z,18.93
2019-03-02T11:16:49.487Z,17.53
2019-03-02T11:19:26.563Z,17.80
2019-03-02T11:22:14.567Z,18.07
2019-03-02T11:24:55.500Z,16.87
2019-03-02T11:27:39.117Z,16.47
2019-03-02T11:30:23.605Z,16.23
2019-03-02T11:33:09.054Z,15.93
2019-03-02T11:35:59.455Z,15.87
2019-03-02T11:38:45.839Z,15.63
2019-03-02T11:41:20.857Z,15.67
2019-03-02T11:44:09.728Z,16.30
2019-03-02T11:46:51.675Z,14.90
2019-03-02T11:49:47.367Z,15.27
2019-03-02T11:52:38.614Z,15.43
2019-03-02T11:55:18.020Z,15.63
2019-03-02T11:58:07.372Z,15.93
2019-03-02T12:00:45.280Z,16.70
2019-03-02T12:03:35.363Z,15.77
2019-03-02T12:06:21.888Z,16.60
2019-03-02T12:09:06.847Z,16.97
2019-03-02T12:11:47.289Z,16.17
2019-03-02T12:14:32.004Z,16.13
2019-03-02T12:17:26.963Z,16.57
2019-03-02T12:20:08.872Z,15.67
2019-03-02T12:22:46.855Z,16.07
2019-03-02T12:25:26.866Z,15.50
2019-03-02T12:28:15.166Z,15.23
2019-03-02T12:31:03.718Z,16.20
2019-03-02T12:33:35.879Z,15.93
2019-03-02T12:36:19.111Z,15.53
2019-03-02T12:39:00.081Z,15.57
2019-03-02T12:41:55.424Z,15.30
2019-03-02T12:44:29.616Z,14.80
2019-03-02T12:47:10.076Z,15.10
2019-03-02T12:49:54.245Z,15.10
2019-03-02T12:52:39.291Z,15.10
2019-03-02T12:55:28.267Z,16.70
2019-03-02T12:58:13.318Z,16.13
2019-03-02T13:00:58.458Z,15.37
2019-03-02T13:03:34.535Z,15.83
2019-03-02T13:06:36.002Z,15.30
2019-03-02T13:09:07.051Z,15.10
2019-03-02T13:11:55.532Z,14.27
2019-03-02T13:14:35.257Z,14.60
2019-03-02T13:17:27.608Z,13.23
2019-03-02T13:20:22.720Z,12.70
2019-03-02T13:23:12.772Z,12.97
2019-03-02T13:25:59.148Z,12.53
2019-03-02T13:28:51.623Z,11.60
2019-03-02T13:31:46.780Z,11.80
2019-03-02T13:34:28.170Z,11.37
2019-03-02T13:37:24.035Z,11.87
2019-03-02T13:40:10.411Z,12.80
2019-03-02T13:42:50.929Z,12.33
2019-03-02T13:45:21.499Z,13.03
2019-03-02T13:48:07.868Z,14.63
2019-03-02T13:50:53.730Z,16.00
2019-03-02T13:53:43.316Z,14.80
2019-03-02T13:56:26.707Z,14.07
2019-03-02T13:59:00.149Z,14.00
2019-03-02T14:01:39.568Z,12.73
2019-03-02T14:04:30.575Z,13.10
2019-03-02T14:07:13.402Z,12.73
2019-03-02T14:09:48.639Z,12.20
2019-03-02T14:12:35.012Z,13.23
2019-03-02T14:15:21.902Z,12.73
2019-03-02T14:17:58.931Z,13.00
2019-03-02T14:20:34.079Z,12.47
2019-03-02T14:23:10.640Z,12.77
2019-03-02T14:25:47.431Z,11.93
2019-03-02T14:28:34.740Z,11.30
2019-03-02T14:31:28.071Z,10.93
2019-03-02T14:34:03.059Z,11.20
2019-03-02T14:36:49.252Z,10.63
2019-03-02T14:39:26.316Z,10.57
2019-03-02T14:42:15.471Z,10.13
2019-03-02T14:45:00.425Z,11.30
2019-03-02T14:47:38.448Z,10.33
2019-03-02T14:50:16.570Z,11.23
2019-03-02T14:53:09.989Z,11.33
2019-03-02T14:56:13.800Z,11.17
2019-03-02T14:58:49.579Z,12.10
2019-03-02T15:01:42.879Z,12.50
2019-03-02T15:04:29.661Z,13.70
2019-03-02T15:07:10.125Z,11.90
2019-03-02T15:09:49.579Z,12.27
2019-03-02T15:12:35.963Z,12.63
2019-03-02T15:15:22.475Z,12.50
2019-03-02T15:18:06.623Z,12.17
2019-03-02T15:20:51.312Z,12.40
2019-03-02T15:23:24.963Z,12.53
2019-03-02T15:25:57.141Z,13.07
2019-03-02T15:28:37.634Z,12.90
2019-03-02T15:31:27.115Z,13.43
2019-03-02T15:34:19.382Z,12.57
2019-03-02T15:37:01.323Z,14.47
2019-03-02T15:39:53.595Z,14.53
2019-03-02T15:42:26.947Z,13.57
2019-03-02T15:45:23.348Z,13.87
2019-03-02T15:48:12.910Z,13.27
2019-03-02T15:50:58.188Z,13.93
2019-03-02T15:53:31.352Z,13.80
2019-03-02T15:56:16.343Z,14.47
2019-03-02T15:58:59.632Z,15.00
2019-03-02T16:01:45.116Z,15.07
2019-03-02T16:04:28.323Z,14.67
2019-03-02T16:07:03.555Z,15.43
2019-03-02T16:09:49.043Z,16.47
2019-03-02T16:12:29.809Z,16.03
2019-03-02T16:15:22.139Z,15.80
2019-03-02T16:17:55.044Z,17.10
2019-03-02T16:20:31.151Z,16.83
2019-03-02T16:23:16.239Z,18.10
2019-03-02T16:26:01.191Z,16.93
2019-03-02T16:28:32.791Z,17.03
2019-03-02T16:31:18.600Z,17.33
2019-03-02T16:34:16.745Z,16.90
2019-03-02T16:37:01.824Z,18.73
2019-03-02T16:39:48.300Z,18.70
2019-03-02T16:42:24.341Z,17.27
2019-03-02T16:44:58.913Z,16.97
2019-03-02T16:47:41.376Z,18.97
2019-03-02T16:50:49.957Z,18.30
2019-03-02T16:53:40.750Z,17.63
2019-03-02T16:56:27.227Z,16.97
2019-03-02T16:59:03.233Z,18.63
2019-03-02T17:01:45.512Z,18.00
2019-03-02T17:04:34.647Z,18.20
2019-03-02T17:07:30.371Z,18.73
2019-03-02T17:10:04.205Z,17.97
2019-03-02T17:12:56.570Z,17.17
2019-03-02T17:15:29.632Z,16.43
2019-03-02T17:18:25.431Z,17.77
2019-03-02T17:21:08.166Z,18.20
2019-03-02T17:23:54.873Z,17.37
2019-03-02T17:26:52.979Z,19.63
2019-03-02T17:29:51.575Z,20.43
2019-03-02T17:32:37.539Z,20.03
2019-03-02T17:35:25.451Z,17.80
2019-03-02T17:37:58.887Z,16.83
2019-03-02T17:40:42.383Z,16.53
2019-03-02T17:43:34.335Z,15.93
2019-03-02T17:46:14.178Z,16.60
2019-03-02T17:49:07.733Z,14.20
2019-03-02T17:51:48.115Z,14.30
2019-03-02T17:54:27.499Z,13.20
2019-03-02T17:57:13.971Z,12.97
2019-03-02T18:00:05.825Z,12.90
2019-03-02T18:02:45.960Z,13.17
2019-03-02T18:05:43.957Z,13.60
2019-03-02T18:08:48.519Z,12.17
2019-03-02T18:11:36.842Z,11.43
2019-03-02T18:14:20.126Z,10.13
2019-03-02T18:17:04.864Z,9.67
2019-03-02T18:19:31.568Z,9.40
2019-03-02T18:21:58.263Z,9.20
2019-03-02T18:24:25.697Z,8.10
2019-03-02T18:26:52.575Z,8.83
2019-03-02T18:29:19.388Z,8.03
2019-03-02T18:31:46.287Z,8.73
2019-03-02T18:34:15.147Z,8.13
2019-03-02T18:36:45.890Z,8.77
2019-03-02T18:39:10.563Z,7.90
2019-03-02T18:41:37.266Z,7.47
2019-03-02T18:44:04.249Z,6.70
2019-03-02T18:46:31.147Z,6.40
2019-03-02T18:49:14.997Z,6.20
2019-03-02T18:51:59.928Z,5.73
2019-03-02T18:54:27.312Z,5.40
2019-03-02T18:56:54.407Z,5.23
2019-03-02T18:59:21.112Z,4.73
2019-03-02T19:01:48.747Z,4.57
2019-03-02T19:04:17.471Z,4.77
2019-03-02T19:06:44.291Z,4.43
2019-03-02T19:09:11.135Z,4.17
2019-03-02T19:11:37.854Z,4.50
2019-03-02T19:14:04.660Z,4.33
2019-03-02T19:16:31.467Z,4.70
2019-03-02T19:18:58.279Z,4.40
2019-03-02T19:21:24.975Z,3.50
2019-03-02T19:23:51.699Z,4.10
2019-03-02T19:26:18.498Z,3.80
2019-03-02T19:28:45.211Z,3.70
2019-03-02T19:31:11.915Z,3.23
2019-03-02T19:33:38.612Z,3.13
2019-03-02T19:36:05.320Z,3.03
2019-03-02T19:38:32.019Z,2.83
2019-03-02T19:40:58.820Z,2.73
2019-03-02T19:43:25.511Z,2.60
2019-03-02T19:45:52.211Z,2.60
2019-03-02T19:48:19.012Z,2.37
2019-03-02T19:50:45.724Z,2.60
2019-03-02T19:53:12.428Z,3.30
2019-03-02T19:55:39.227Z,3.00
2019-03-02T19:58:06.042Z,2.73
2019-03-02T20:00:33.000Z,2.90
2019-03-02T20:02:59.705Z,3.20
2019-03-02T20:05:26.507Z,3.23
2019-03-02T20:07:53.651Z,3.00
2019-03-02T20:10:20.461Z,3.80
2019-03-02T20:12:47.163Z,2.97
2019-03-02T20:15:15.957Z,3.23
2019-03-02T20:17:42.740Z,3.37
2019-03-02T20:20:11.159Z,3.13
2019-03-02T20:22:38.392Z,3.10
2019-03-02T20:25:06.540Z,3.07
2019-03-02T20:27:33.252Z,2.97
2019-03-02T20:29:59.964Z,2.90
2019-03-02T20:32:26.683Z,3.40
2019-03-02T20:34:53.387Z,3.00
2019-03-02T20:37:20.099Z,3.37
2019-03-02T20:39:46.793Z,3.53
2019-03-02T20:42:13.483Z,2.63
2019-03-02T20:44:40.300Z,3.13
2019-03-02T20:47:06.995Z,3.30
2019-03-02T20:49:33.707Z,3.60
2019-03-02T20:52:00.407Z,3.57
2019-03-02T20:54:27.111Z,3.00
2019-03-02T20:56:53.816Z,3.20
2019-03-02T20:59:20.515Z,3.42
2019-03-02T21:01:47.414Z,3.57
2019-03-02T21:04:14.119Z,3.57
2019-03-02T21:06:40.935Z,3.57
2019-03-02T21:09:07.635Z,3.93
2019-03-02T21:11:34.331Z,3.07
2019-03-02T21:14:01.376Z,3.70
2019-03-02T21:16:28.167Z,3.63
2019-03-02T21:18:54.937Z,3.47
2019-03-02T21:21:21.891Z,4.23
2019-03-02T21:23:48.595Z,3.43
2019-03-02T21:26:15.315Z,3.10
2019-03-02T21:28:42.008Z,3.87
2019-03-02T21:31:08.719Z,4.20
2019-03-02T21:33:35.424Z,3.67
2019-03-02T21:36:02.140Z,4.00
2019-03-02T21:38:30.003Z,4.07
2019-03-02T21:40:57.151Z,3.93
2019-03-02T21:43:24.191Z,3.70
2019-03-02T21:45:50.911Z,3.93
2019-03-02T21:48:17.615Z,3.57
2019-03-02T21:50:44.464Z,3.60
2019-03-02T21:53:11.164Z,4.20
2019-03-02T21:55:37.963Z,4.13
2019-03-02T21:58:04.814Z,4.00
2019-03-02T22:00:31.804Z,3.80
2019-03-02T22:02:58.503Z,4.33
2019-03-02T22:05:25.310Z,3.70
2019-03-02T22:07:52.011Z,4.40
2019-03-02T22:10:24.619Z,4.23
2019-03-02T22:12:51.321Z,4.10
2019-03-02T22:15:18.127Z,3.93
2019-03-02T22:17:46.879Z,4.80
2019-03-02T22:20:15.019Z,4.73
2019-03-02T22:23:01.376Z,4.23
2019-03-02T22:25:28.060Z,5.20
2019-03-02T22:27:54.754Z,5.17
2019-03-02T22:30:21.473Z,5.70
2019-03-02T22:32:48.259Z,6.00
2019-03-02T22:35:15.072Z,6.97
2019-03-02T22:37:41.751Z,6.50
2019-03-02T22:40:11.464Z,6.63
2019-03-02T22:42:38.159Z,7.73
2019-03-02T22:45:05.704Z,7.33
2019-03-02T22:47:32.392Z,6.67
2019-03-02T22:49:59.101Z,6.27
2019-03-02T22:52:25.804Z,6.13
2019-03-02T22:54:52.494Z,6.77
2019-03-02T22:57:19.199Z,6.20
2019-03-02T23:00:18.943Z,6.30
2019-03-02T23:02:45.076Z,6.30
2019-03-02T23:05:11.975Z,6.23
2019-03-02T23:07:38.676Z,6.80
2019-03-02T23:10:07.110Z,6.27
2019-03-02T23:12:33.808Z,6.43
2019-03-02T23:15:00.503Z,6.23
2019-03-02T23:17:27.199Z,5.93
2019-03-02T23:19:53.891Z,5.50
2019-03-02T23:22:20.586Z,5.73
2019-03-02T23:24:47.627Z,5.60
2019-03-02T23:27:14.327Z,5.43
2019-03-02T23:29:41.007Z,5.70
2019-03-02T23:32:07.708Z,4.73
2019-03-02T23:34:37.078Z,4.80
2019-03-02T23:37:03.135Z,4.30
2019-03-02T23:39:29.841Z,4.07
2019-03-02T23:41:56.541Z,4.50
2019-03-02T23:44:25.151Z,4.30
2019-03-02T23:46:51.827Z,4.07
2019-03-02T23:49:18.527Z,4.67
2019-03-02T23:51:45.216Z,3.77
2019-03-02T23:54:11.903Z,3.80
2019-03-02T23:56:38.591Z,3.80
2019-03-02T23:59:05.307Z,4.20
